OPA Logo
 
ASOS:
At:2019.10.21 1455 UTC
Wind:
Viz: 10 mile(s)
Sky: mostly cloudy
Temp: 46 F (8 C)
DewP: 35 F (2 C)
RH: 65%
Baro: 30.27 in.
ob: KBDN 211455Z AUTO 00000KT 10SM BKN047 BKN055 08/02 A3027 RMK AO2

ASOS: KRDM
At:2019.10.21 1356 UTC
Wind:320° @ 3KT
Viz: 10 mile(s)
Sky: overcast
Temp: 48.9 F (9.4 C)
DewP: 36.0 F (2.2 C)
RH: 60%
Baro: 30.25 in.
ob: KRDM 211356Z AUTO 32003KT 10SM OVC060 09/02 A3025 RMK AO2 SLP241 T00940022
Apache-SSL Logo

Valid HTML 4.01!

Central Oregon OPA Chapter

Calendar


Other Calendar pages

Oregon Pilots Association Events Calendar

Washington Pilots Association Events


Web page by: gem@rellim.com